Time;durP1;ratioP1;P1;durP2;ratioP2;P2;SDS_P1;SDS_P2;PMS_P1;PMS_P2;Temp;Humidity;BMP_temperature;BMP_pressure;BME280_temperature;BME280_humidity;BME280_pressure;Samples;Min_cycle;Max_cycle;Signal;HPM_P1;HPM_P2
2022/02/16 00:01:22;;;;;;;5.15;1.95;;;21.50;54.30;;;;;;4975538;28;92613;-81
2022/02/16 00:03:48;;;;;;;3.75;2.08;;;21.50;54.20;;;;;;4975818;28;92636;-81
2022/02/16 00:06:13;;;;;;;3.72;1.88;;;21.40;54.30;;;;;;4983398;28;92239;-84
2022/02/16 00:08:47;;;;;;;4.03;1.85;;;21.40;54.90;;;;;;4975644;28;95467;-85
2022/02/16 00:11:13;;;;;;;3.55;1.98;;;21.50;54.30;;;;;;4976678;28;92513;-83
2022/02/16 00:13:39;;;;;;;3.88;1.88;;;21.40;54.90;;;;;;4975689;28;93520;-83
2022/02/16 00:16:08;;;;;;;3.20;1.90;;;21.40;54.30;;;;;;4978074;28;93441;-85
2022/02/16 00:18:36;;;;;;;4.07;1.75;;;21.40;54.20;;;;;;4978826;28;93188;-82
2022/02/16 00:21:02;;;;;;;4.03;2.00;;;21.40;54.20;;;;;;4977308;28;93043;-82
2022/02/16 00:23:28;;;;;;;3.03;1.70;;;21.40;54.30;;;;;;4976399;28;92809;-87
2022/02/16 00:25:55;;;;;;;2.30;1.60;;;21.40;54.10;;;;;;4978417;28;92031;-85
2022/02/16 00:28:24;;;;;;;3.17;1.80;;;21.40;54.20;;;;;;4976149;28;92594;-82
2022/02/16 00:30:49;;;;;;;4.20;1.83;;;21.40;54.10;;;;;;4973182;28;92629;-82
2022/02/16 00:33:15;;;;;;;3.33;1.75;;;21.40;54.10;;;;;;4977835;28;93158;-79
2022/02/16 00:35:40;;;;;;;4.13;1.88;;;21.40;54.20;;;;;;4981533;28;92598;-80
2022/02/16 00:38:06;;;;;;;3.10;1.60;;;21.30;54.70;;;;;;4975810;28;94074;-81
2022/02/16 00:40:32;;;;;;;3.20;1.60;;;21.30;54.20;;;;;;4971337;28;93303;-84
2022/02/16 00:42:57;;;;;;;2.22;1.63;;;21.30;54.10;;;;;;4977884;28;93427;-85
2022/02/16 00:45:23;;;;;;;3.00;1.73;;;21.30;53.90;;;;;;4993238;28;93058;-86
2022/02/16 00:47:49;;;;;;;4.20;2.00;;;21.40;54.20;;;;;;4973495;28;93090;-83
2022/02/16 00:50:24;;;;;;;4.07;1.65;;;21.30;54.00;;;;;;4975497;28;92688;-81
2022/02/16 00:52:50;;;;;;;5.63;1.45;;;21.30;54.10;;;;;;4977937;28;92091;-86
2022/02/16 00:55:16;;;;;;;3.42;1.67;;;21.30;53.90;;;;;;4976013;28;91628;-86
2022/02/16 00:57:41;;;;;;;2.75;1.67;;;21.30;54.00;;;;;;4977763;28;92863;-84
2022/02/16 01:00:07;;;;;;;3.63;1.77;;;21.30;53.80;;;;;;4973217;28;92722;-80
2022/02/16 01:02:33;;;;;;;2.22;1.50;;;21.30;53.90;;;;;;4975254;28;93790;-81
2022/02/16 01:04:58;;;;;;;2.83;1.67;;;21.30;53.80;;;;;;4978253;28;93032;-82
2022/02/16 01:07:24;;;;;;;2.42;1.52;;;21.30;53.90;;;;;;4978791;28;92988;-82
2022/02/16 01:09:50;;;;;;;2.35;1.40;;;21.30;53.70;;;;;;4979904;28;92616;-84
2022/02/16 01:12:16;;;;;;;3.25;1.50;;;21.20;53.80;;;;;;4976947;28;93162;-86
2022/02/16 01:14:42;;;;;;;3.42;1.80;;;21.20;53.90;;;;;;4976447;28;92810;-85
2022/02/16 01:17:08;;;;;;;4.13;1.90;;;21.20;53.70;;;;;;4997015;28;95374;-84
2022/02/16 01:19:33;;;;;;;2.95;1.70;;;21.20;53.70;;;;;;4981929;28;92303;-81
2022/02/16 01:21:59;;;;;;;2.47;1.50;;;21.30;53.70;;;;;;4977281;28;92525;-84
2022/02/16 01:24:25;;;;;;;3.15;1.67;;;21.30;53.70;;;;;;4975465;28;92904;-84
2022/02/16 01:26:50;;;;;;;3.22;1.50;;;21.20;53.60;;;;;;4976055;28;93369;-85
2022/02/16 01:29:16;;;;;;;1.52;1.38;;;21.20;53.80;;;;;;4975017;28;93247;-83
2022/02/16 01:31:42;;;;;;;2.85;1.70;;;21.20;53.70;;;;;;4975781;28;92843;-83
2022/02/16 01:34:08;;;;;;;2.83;1.75;;;21.20;53.70;;;;;;4978518;28;91940;-86
2022/02/16 01:36:36;;;;;;;2.78;1.60;;;21.20;53.60;;;;;;4975039;28;92741;-84
2022/02/16 01:39:05;;;;;;;2.72;1.48;;;21.20;53.70;;;;;;4976531;28;92805;-82
2022/02/16 01:41:30;;;;;;;2.03;1.40;;;21.20;53.60;;;;;;4976677;28;92599;-83
2022/02/16 01:43:56;;;;;;;2.63;1.50;;;21.20;53.80;;;;;;4993964;28;91991;-85
2022/02/16 01:46:22;;;;;;;2.72;1.70;;;21.20;53.50;;;;;;4975614;28;92590;-82
2022/02/16 01:48:47;;;;;;;2.13;1.40;;;21.20;53.50;;;;;;4975612;28;93363;-82
2022/02/16 01:51:13;;;;;;;2.33;1.40;;;21.20;53.50;;;;;;4977264;28;94283;-84
2022/02/16 01:53:42;;;;;;;2.90;1.30;;;21.20;53.60;;;;;;4977544;28;92132;-82
2022/02/16 01:56:07;;;;;;;2.80;1.55;;;21.10;53.40;;;;;;4981746;28;93106;-83
2022/02/16 01:58:34;;;;;;;2.08;1.50;;;21.20;53.40;;;;;;4988123;28;93655;-82
2022/02/16 02:01:04;;;;;;;2.63;1.48;;;21.20;53.40;;;;;;4981816;28;93151;-81
2022/02/16 02:03:29;;;;;;;1.77;1.00;;;21.20;53.40;;;;;;4978998;28;92722;-81
2022/02/16 02:05:58;;;;;;;1.98;1.27;;;21.20;53.50;;;;;;4981188;28;93577;-86
2022/02/16 02:08:25;;;;;;;2.47;1.33;;;21.20;53.50;;;;;;4980080;28;92638;-84
2022/02/16 02:10:51;;;;;;;2.40;1.33;;;21.20;53.40;;;;;;4975667;28;92110;-83
2022/02/16 02:13:18;;;;;;;3.00;1.42;;;21.20;53.50;;;;;;4978400;28;92632;-81
2022/02/16 02:15:44;;;;;;;1.70;1.20;;;21.20;53.50;;;;;;4978239;28;94719;-87
2022/02/16 02:18:19;;;;;;;1.90;1.20;;;21.10;53.20;;;;;;4982109;28;93590;-84
2022/02/16 02:20:45;;;;;;;2.28;1.20;;;21.10;53.30;;;;;;4977496;28;92818;-83
2022/02/16 02:23:12;;;;;;;1.65;1.30;;;21.10;53.30;;;;;;4997708;28;91996;-81
2022/02/16 02:25:48;;;;;;;1.50;1.38;;;21.10;53.30;;;;;;4977701;28;92744;-82
2022/02/16 02:28:15;;;;;;;1.27;1.05;;;21.10;53.30;;;;;;4976525;28;92886;-85
2022/02/16 02:30:41;;;;;;;2.13;1.40;;;21.10;53.30;;;;;;4980612;28;92050;-84
2022/02/16 02:33:07;;;;;;;2.33;1.10;;;21.10;53.20;;;;;;4982080;28;91802;-86
2022/02/16 02:35:32;;;;;;;1.75;1.27;;;21.10;53.30;;;;;;4979492;28;93260;-84
2022/02/16 02:37:58;;;;;;;2.22;1.30;;;21.10;53.20;;;;;;4979753;28;92424;-81
2022/02/16 02:40:23;;;;;;;2.65;1.38;;;21.10;53.20;;;;;;4977873;28;93010;-86
2022/02/16 02:42:49;;;;;;;2.22;1.25;;;21.10;53.20;;;;;;4977245;28;93203;-82
2022/02/16 02:45:15;;;;;;;2.38;1.30;;;21.10;53.30;;;;;;4981000;28;92515;-84
2022/02/16 02:47:41;;;;;;;2.72;1.33;;;21.10;53.30;;;;;;4979902;28;92460;-86
2022/02/16 02:50:07;;;;;;;3.42;1.67;;;21.10;53.20;;;;;;4978286;28;92973;-87
2022/02/16 02:52:36;;;;;;;2.58;1.02;;;21.10;53.20;;;;;;4979229;28;91995;-83
2022/02/16 02:55:11;;;;;;;2.90;1.10;;;21.10;53.20;;;;;;4981659;28;92793;-85
2022/02/16 02:57:38;;;;;;;1.58;1.02;;;21.10;53.20;;;;;;4980862;28;91881;-82
2022/02/16 03:00:06;;;;;;;2.15;1.25;;;21.00;53.30;;;;;;4977846;28;92553;-85
2022/02/16 03:02:32;;;;;;;2.50;1.50;;;21.00;53.20;;;;;;4981436;28;92293;-84
2022/02/16 03:04:57;;;;;;;2.20;1.23;;;21.00;53.20;;;;;;4977719;28;93728;-86
2022/02/16 03:07:23;;;;;;;1.90;1.23;;;21.10;53.20;;;;;;4995437;28;93564;-82
2022/02/16 03:09:48;;;;;;;1.15;0.95;;;21.00;53.20;;;;;;4981554;28;92919;-83
2022/02/16 03:12:14;;;;;;;1.48;1.20;;;21.00;53.00;;;;;;4978785;28;92449;-82
2022/02/16 03:14:40;;;;;;;2.30;1.35;;;21.00;53.10;;;;;;4979197;28;93304;-81
2022/02/16 03:17:05;;;;;;;1.42;1.00;;;21.00;53.00;;;;;;4980381;28;92427;-85
2022/02/16 03:19:31;;;;;;;2.35;1.20;;;21.00;52.90;;;;;;4981345;28;93024;-81
2022/02/16 03:21:57;;;;;;;1.70;1.10;;;21.00;53.20;;;;;;4977750;28;92507;-83
2022/02/16 03:24:23;;;;;;;2.08;1.33;;;21.00;53.10;;;;;;4995785;28;96009;-83
2022/02/16 03:26:48;;;;;;;1.45;1.05;;;21.00;53.20;;;;;;4978136;28;92844;-82
2022/02/16 03:29:14;;;;;;;1.70;1.10;;;21.00;53.10;;;;;;4979852;28;93536;-84
2022/02/16 03:31:40;;;;;;;1.52;0.93;;;21.00;53.20;;;;;;4976911;28;92827;-85
2022/02/16 03:34:06;;;;;;;2.08;1.33;;;21.00;53.10;;;;;;4978253;28;93243;-84
2022/02/16 03:36:31;;;;;;;1.40;0.90;;;21.00;53.10;;;;;;4978763;28;92377;-80
2022/02/16 03:38:57;;;;;;;0.80;0.80;;;21.00;53.00;;;;;;4979444;28;92345;-82
2022/02/16 03:41:26;;;;;;;1.60;1.05;;;21.00;53.00;;;;;;4980238;28;92858;-86
2022/02/16 03:43:53;;;;;;;1.92;1.30;;;21.00;53.00;;;;;;4978368;28;92994;-83
2022/02/16 03:46:19;;;;;;;1.67;1.00;;;21.00;53.00;;;;;;4976335;28;95365;-82
2022/02/16 03:48:45;;;;;;;1.67;1.20;;;20.90;52.90;;;;;;4979505;28;92509;-86
2022/02/16 03:51:10;;;;;;;1.40;0.90;;;21.00;53.00;;;;;;4975273;28;92898;-81
2022/02/16 03:53:36;;;;;;;1.67;1.08;;;21.00;53.00;;;;;;4978205;28;93870;-83
2022/02/16 03:56:01;;;;;;;1.42;1.00;;;21.00;53.00;;;;;;4976960;28;93157;-79
2022/02/16 03:58:27;;;;;;;1.60;1.00;;;21.00;52.90;;;;;;4980323;28;91967;-81
2022/02/16 04:00:52;;;;;;;1.13;0.80;;;20.90;52.80;;;;;;4980585;28;92955;-82
2022/02/16 04:03:18;;;;;;;1.02;0.90;;;20.90;52.90;;;;;;4978049;28;94705;-85
2022/02/16 04:05:44;;;;;;;1.58;1.08;;;20.90;52.80;;;;;;4978462;28;94848;-84
2022/02/16 04:08:10;;;;;;;1.88;0.80;;;20.90;52.90;;;;;;4976908;28;93302;-80
2022/02/16 04:10:36;;;;;;;1.60;1.10;;;20.90;52.70;;;;;;4977492;28;91537;-84
2022/02/16 04:13:02;;;;;;;1.42;0.90;;;20.90;52.90;;;;;;4979655;28;93691;-82
2022/02/16 04:15:28;;;;;;;2.42;1.20;;;20.90;53.70;;;;;;4978198;28;93103;-87
2022/02/16 04:18:05;;;;;;;0.95;0.85;;;20.90;52.90;;;;;;4977576;28;93703;-82
2022/02/16 04:20:31;;;;;;;1.63;1.10;;;20.90;52.90;;;;;;4976981;28;92026;-85
2022/02/16 04:23:07;;;;;;;1.40;1.00;;;20.90;53.30;;;;;;4975899;28;93038;-83
2022/02/16 04:25:33;;;;;;;1.23;1.00;;;20.90;52.90;;;;;;4977734;28;92246;-82
2022/02/16 04:27:58;;;;;;;1.67;1.17;;;20.90;53.10;;;;;;4981324;28;93037;-82
2022/02/16 04:30:25;;;;;;;1.73;1.15;;;20.90;53.00;;;;;;4979847;28;92038;-86
2022/02/16 04:32:51;;;;;;;1.48;0.98;;;20.90;53.00;;;;;;4977438;28;93096;-86
2022/02/16 04:35:16;;;;;;;1.35;0.90;;;20.90;53.00;;;;;;4982509;28;94385;-86
2022/02/16 04:37:42;;;;;;;1.08;0.82;;;20.90;52.90;;;;;;4984227;28;92291;-87
2022/02/16 04:40:08;;;;;;;1.33;0.90;;;20.90;52.90;;;;;;4979162;28;92061;-81
2022/02/16 04:42:34;;;;;;;1.30;0.90;;;20.90;52.90;;;;;;4984261;28;94461;-83
2022/02/16 04:45:00;;;;;;;1.02;0.90;;;20.90;53.00;;;;;;4978970;28;93297;-87
2022/02/16 04:47:25;;;;;;;1.73;1.10;;;20.90;52.90;;;;;;4979746;28;92097;-85
2022/02/16 04:49:51;;;;;;;1.55;1.10;;;20.90;52.90;;;;;;4980857;28;92683;-85
2022/02/16 04:52:17;;;;;;;1.10;0.90;;;20.90;53.10;;;;;;4979840;28;93272;-86
2022/02/16 04:54:42;;;;;;;1.85;1.05;;;20.80;52.90;;;;;;4984725;28;92737;-86
2022/02/16 04:57:08;;;;;;;1.02;0.80;;;20.80;52.80;;;;;;4985265;28;92490;-85
2022/02/16 04:59:33;;;;;;;1.17;1.02;;;20.80;52.80;;;;;;4986094;28;91900;-86
2022/02/16 05:01:59;;;;;;;1.35;0.90;;;20.80;52.80;;;;;;4983035;28;92413;-84
2022/02/16 05:04:25;;;;;;;1.02;0.80;;;20.80;52.80;;;;;;4986681;28;92925;-87
2022/02/16 05:06:50;;;;;;;1.20;0.93;;;20.80;52.80;;;;;;4982384;28;93416;-85
2022/02/16 05:09:16;;;;;;;1.70;1.02;;;20.80;52.80;;;;;;4980928;28;92776;-85
2022/02/16 05:11:41;;;;;;;1.23;1.00;;;20.80;52.80;;;;;;5012953;22;93022;-84
2022/02/16 05:14:07;;;;;;;1.73;0.90;;;20.80;52.70;;;;;;4956507;28;95504;-85
2022/02/16 05:16:42;;;;;;;1.27;1.00;;;20.80;52.80;;;;;;4967605;28;92304;-86
2022/02/16 05:19:08;;;;;;;1.13;0.80;;;20.80;52.90;;;;;;4951142;28;92291;-85
2022/02/16 05:21:34;;;;;;;0.90;0.80;;;20.80;52.80;;;;;;4952583;28;93694;-86
2022/02/16 05:23:59;;;;;;;1.23;0.98;;;20.80;53.00;;;;;;4960341;28;92509;-84
2022/02/16 05:26:25;;;;;;;0.90;0.70;;;20.80;52.70;;;;;;4952809;28;93170;-87
2022/02/16 05:28:50;;;;;;;1.45;1.00;;;20.80;52.80;;;;;;4958229;28;92450;-83
2022/02/16 05:31:16;;;;;;;1.35;1.02;;;20.80;52.70;;;;;;4951211;28;93616;-86
2022/02/16 05:33:42;;;;;;;1.27;0.90;;;20.80;52.70;;;;;;4949938;28;93579;-85
2022/02/16 05:36:07;;;;;;;0.70;0.70;;;20.80;52.70;;;;;;4956083;28;92418;-86
2022/02/16 05:38:35;;;;;;;0.73;0.73;;;20.80;52.70;;;;;;4968082;28;92645;-86
2022/02/16 05:41:00;;;;;;;1.15;0.90;;;20.80;52.70;;;;;;4947111;28;92812;-86
2022/02/16 05:43:26;;;;;;;2.45;0.75;;;20.80;52.70;;;;;;4961013;28;92946;-84
2022/02/16 05:45:51;;;;;;;1.13;0.93;;;20.80;52.60;;;;;;4955300;28;92230;-84
2022/02/16 05:48:20;;;;;;;0.98;0.68;;;20.70;52.60;;;;;;4957205;28;91848;-86
2022/02/16 05:50:49;;;;;;;0.77;0.77;;;20.80;52.70;;;;;;4951993;28;93069;-86
2022/02/16 05:53:15;;;;;;;0.73;0.70;;;20.80;52.70;;;;;;4954127;28;93824;-84
2022/02/16 05:55:41;;;;;;;1.27;0.77;;;20.70;52.60;;;;;;4952736;28;92808;-84
2022/02/16 05:58:14;;;;;;;0.60;0.60;;;20.70;52.60;;;;;;4956726;28;93433;-84
2022/02/16 06:00:39;;;;;;;0.90;0.60;;;20.70;52.50;;;;;;4950505;28;93007;-86
2022/02/16 06:03:05;;;;;;;0.82;0.70;;;20.70;52.50;;;;;;4968378;28;95311;-85
2022/02/16 06:05:31;;;;;;;0.60;0.60;;;20.70;52.70;;;;;;4952063;28;92823;-86
2022/02/16 06:07:57;;;;;;;1.80;0.70;;;20.70;52.60;;;;;;4948818;28;92656;-86
2022/02/16 06:10:22;;;;;;;1.58;0.90;;;20.70;52.60;;;;;;4952722;28;92881;-86
2022/02/16 06:12:48;;;;;;;1.17;0.80;;;20.70;52.50;;;;;;4955636;28;92688;-86
2022/02/16 06:15:14;;;;;;;0.68;0.68;;;20.70;52.60;;;;;;4951329;28;92132;-86
2022/02/16 06:17:39;;;;;;;0.77;0.77;;;20.70;52.50;;;;;;4955040;28;93117;-84
2022/02/16 06:20:06;;;;;;;1.27;0.70;;;20.70;52.60;;;;;;4944011;28;96823;-84
2022/02/16 06:22:31;;;;;;;1.00;0.88;;;20.70;52.40;;;;;;4954141;28;93723;-86
2022/02/16 06:24:58;;;;;;;1.02;0.70;;;20.70;53.00;;;;;;4955568;28;92396;-86
2022/02/16 06:27:23;;;;;;;1.00;0.90;;;20.70;52.40;;;;;;4955346;28;92666;-86
2022/02/16 06:29:49;;;;;;;0.68;0.60;;;20.70;52.40;;;;;;4956708;28;94313;-87
2022/02/16 06:32:15;;;;;;;1.73;0.75;;;20.70;52.40;;;;;;4956996;28;95287;-86
2022/02/16 06:34:40;;;;;;;0.70;0.70;;;20.70;52.40;;;;;;4951766;28;93029;-86
2022/02/16 06:37:06;;;;;;;0.60;0.57;;;20.70;52.30;;;;;;4946489;28;91260;-87
2022/02/16 06:39:31;;;;;;;2.05;0.80;;;20.60;52.40;;;;;;4951330;28;93048;-86
2022/02/16 06:41:57;;;;;;;0.77;0.77;;;20.70;52.30;;;;;;4956782;28;93261;-86
2022/02/16 06:44:22;;;;;;;0.90;0.80;;;20.70;52.30;;;;;;4961231;28;93803;-86
2022/02/16 06:46:51;;;;;;;0.60;0.60;;;20.70;52.40;;;;;;4949701;28;93162;-87
2022/02/16 06:49:17;;;;;;;0.83;0.70;;;20.70;52.30;;;;;;4954181;28;92959;-86
2022/02/16 06:51:43;;;;;;;1.25;0.70;;;20.70;52.30;;;;;;4962848;28;92402;-86
2022/02/16 06:54:09;;;;;;;0.63;0.60;;;20.60;52.30;;;;;;4961309;28;92489;-86
2022/02/16 06:56:35;;;;;;;0.63;0.60;;;20.70;52.30;;;;;;4958789;28;92197;-86
2022/02/16 06:59:01;;;;;;;0.68;0.60;;;20.60;52.50;;;;;;4956912;28;92768;-85
2022/02/16 07:01:27;;;;;;;0.95;0.73;;;20.60;52.30;;;;;;4946878;28;95393;-87
2022/02/16 07:03:52;;;;;;;0.90;0.60;;;20.60;52.30;;;;;;4953428;28;92583;-88
2022/02/16 07:06:18;;;;;;;0.60;0.52;;;20.60;52.40;;;;;;4961605;28;92720;-87
2022/02/16 07:08:44;;;;;;;0.68;0.68;;;20.60;52.30;;;;;;4958917;28;93750;-87
2022/02/16 07:11:09;;;;;;;0.77;0.68;;;20.60;52.20;;;;;;4956399;28;93563;-87
2022/02/16 07:13:35;;;;;;;0.88;0.77;;;20.60;52.10;;;;;;4954002;28;93002;-86
2022/02/16 07:16:00;;;;;;;3.03;0.80;;;20.70;53.10;;;;;;4958858;28;92383;-87
2022/02/16 07:18:29;;;;;;;3.00;0.70;;;20.70;52.90;;;;;;4958459;28;92470;-87
2022/02/16 07:20:55;;;;;;;1.10;0.80;;;20.70;53.10;;;;;;4961052;28;92396;-85
2022/02/16 07:23:21;;;;;;;2.08;0.90;;;20.70;53.00;;;;;;4958086;28;92296;-86
2022/02/16 07:25:46;;;;;;;1.13;0.70;;;20.80;53.00;;;;;;4948164;28;91964;-86
2022/02/16 07:28:12;;;;;;;2.60;0.93;;;20.80;53.20;;;;;;4961088;28;93168;-87
2022/02/16 07:30:37;;;;;;;1.40;0.82;;;20.80;53.30;;;;;;4955196;28;92523;-87
2022/02/16 07:33:03;;;;;;;2.35;0.93;;;20.80;53.40;;;;;;4958226;28;92985;-88
2022/02/16 07:35:34;;;;;;;5.32;1.30;;;20.90;53.40;;;;;;4956210;28;92333;-86
2022/02/16 07:38:00;;;;;;;4.93;1.02;;;20.90;53.50;;;;;;4959335;28;92705;-87
2022/02/16 07:40:26;;;;;;;1.80;1.00;;;20.90;53.40;;;;;;4957315;28;92521;-87
2022/02/16 07:42:51;;;;;;;3.38;1.20;;;20.90;53.40;;;;;;4961183;28;93174;-86
2022/02/16 07:45:18;;;;;;;5.28;1.40;;;20.90;53.50;;;;;;4956343;28;92256;-87
2022/02/16 07:47:44;;;;;;;8.85;1.85;;;20.90;53.70;;;;;;4958434;28;92750;-88
2022/02/16 07:50:09;;;;;;;4.65;1.80;;;20.90;53.60;;;;;;4949726;28;92338;-88
2022/02/16 07:52:37;;;;;;;5.45;1.42;;;21.00;53.40;;;;;;4956651;28;92026;-88
2022/02/16 07:55:04;;;;;;;5.90;1.40;;;21.00;53.60;;;;;;4954304;28;92690;-86
2022/02/16 07:57:30;;;;;;;4.63;1.40;;;21.00;53.80;;;;;;4957400;28;93580;-86
2022/02/16 07:59:55;;;;;;;6.90;2.10;;;21.00;53.80;;;;;;4958592;28;93332;-87
2022/02/16 08:02:21;;;;;;;18.70;2.53;;;21.00;53.90;;;;;;4954875;28;93214;-86
2022/02/16 08:04:46;;;;;;;13.20;2.63;;;21.00;53.90;;;;;;4960211;28;92254;-86
2022/02/16 08:07:12;;;;;;;10.55;2.08;;;21.10;53.80;;;;;;4952085;28;92682;-86
2022/02/16 08:09:38;;;;;;;5.72;1.80;;;21.00;54.00;;;;;;4930360;28;95890;-85
2022/02/16 08:12:04;;;;;;;5.28;1.80;;;21.10;54.10;;;;;;4957703;28;93283;-86
2022/02/16 08:14:33;;;;;;;23.73;4.70;;;21.10;54.60;;;;;;4960896;28;91999;-87
2022/02/16 08:17:03;;;;;;;;;;;21.10;54.30;;;;;;4958433;28;95279;-87
2022/02/16 08:19:30;;;;;;;15.85;3.38;;;21.10;55.80;;;;;;4968708;28;94628;-84
2022/02/16 08:21:57;;;;;;;21.45;4.28;;;21.10;54.50;;;;;;4955142;28;92984;-87
2022/02/16 08:24:25;;;;;;;15.57;4.60;;;21.10;54.80;;;;;;4960169;28;93037;-87
2022/02/16 08:26:51;;;;;;;21.05;5.15;;;21.10;52.90;;;;;;4956767;28;93049;-88
2022/02/16 08:29:17;;;;;;;18.20;4.30;;;21.10;53.50;;;;;;4959581;28;94999;-85
2022/02/16 08:31:45;;;;;;;9.88;3.53;;;21.10;52.70;;;;;;4954379;28;92705;-85
2022/02/16 08:34:10;;;;;;;15.43;3.20;;;21.20;53.10;;;;;;4957306;28;92708;-87
2022/02/16 08:36:37;;;;;;;8.05;2.50;;;21.10;53.60;;;;;;4953895;28;93750;-86
2022/02/16 08:39:03;;;;;;;13.73;3.58;;;21.10;53.80;;;;;;4946314;28;96238;-84
2022/02/16 08:41:29;;;;;;;14.00;3.72;;;21.10;54.40;;;;;;4950035;28;92555;-86
2022/02/16 08:43:55;;;;;;;10.50;2.92;;;21.10;54.90;;;;;;4957450;28;92375;-87
2022/02/16 08:46:21;;;;;;;18.73;3.95;;;21.10;54.90;;;;;;4946692;28;96717;-86
2022/02/16 08:48:46;;;;;;;12.70;3.08;;;21.10;55.30;;;;;;4953448;28;93136;-85
2022/02/16 08:51:12;;;;;;;18.65;4.50;;;21.10;55.10;;;;;;4953059;28;92501;-85
2022/02/16 08:53:38;;;;;;;15.27;3.42;;;21.10;54.50;;;;;;4951125;28;92653;-85
2022/02/16 08:56:04;;;;;;;12.38;3.88;;;21.10;54.70;;;;;;4955435;28;95339;-85
2022/02/16 08:58:30;;;;;;;9.40;3.00;;;21.10;54.40;;;;;;4954284;28;92803;-87
2022/02/16 09:01:04;;;;;;;14.40;2.97;;;21.10;54.80;;;;;;4950541;28;92464;-86
2022/02/16 09:03:31;;;;;;;10.05;2.67;;;21.10;54.90;;;;;;4952028;28;92149;-87
2022/02/16 09:05:59;;;;;;;10.73;2.78;;;21.10;55.20;;;;;;4955145;28;92609;-87
2022/02/16 09:08:24;;;;;;;12.35;3.10;;;21.10;55.10;;;;;;4954821;28;93595;-87
2022/02/16 09:10:50;;;;;;;7.85;2.53;;;21.10;54.90;;;;;;4954948;28;94296;-88
2022/02/16 09:13:16;;;;;;;9.88;2.63;;;21.10;54.60;;;;;;4959089;28;92604;-87
2022/02/16 09:15:41;;;;;;;14.18;2.30;;;21.10;55.40;;;;;;4956936;28;95061;-87
2022/02/16 09:18:08;;;;;;;11.32;2.35;;;21.20;55.40;;;;;;4952774;28;92801;-85
2022/02/16 09:20:33;;;;;;;8.80;2.58;;;21.10;55.40;;;;;;4957696;28;92174;-86
2022/02/16 09:23:00;;;;;;;8.52;2.45;;;21.10;55.20;;;;;;4949609;28;92991;-86
2022/02/16 09:25:26;;;;;;;9.15;2.17;;;21.10;55.40;;;;;;4956293;28;93081;-87
2022/02/16 09:27:51;;;;;;;6.45;2.13;;;21.10;55.20;;;;;;4956947;28;95539;-86
2022/02/16 09:30:17;;;;;;;11.02;2.65;;;21.10;55.30;;;;;;4958658;28;92520;-86
2022/02/16 09:32:43;;;;;;;6.50;2.35;;;21.10;55.60;;;;;;4959192;28;92861;-85
2022/02/16 09:35:09;;;;;;;7.25;2.22;;;21.10;55.20;;;;;;4951756;28;93467;-85
2022/02/16 09:37:35;;;;;;;7.93;2.00;;;21.10;54.10;;;;;;4957738;28;93139;-86
2022/02/16 09:40:01;;;;;;;3.72;1.83;;;21.10;54.50;;;;;;4952444;28;92761;-86
2022/02/16 09:42:29;;;;;;;6.03;2.13;;;21.10;54.50;;;;;;4951468;28;92086;-86
2022/02/16 09:45:00;;;;;;;8.77;2.70;;;21.10;54.50;;;;;;4974860;28;94468;-87
2022/02/16 09:47:26;;;;;;;7.82;3.00;;;21.10;54.60;;;;;;4956685;28;93772;-88
2022/02/16 09:49:53;;;;;;;11.35;3.83;;;21.10;54.70;;;;;;4955884;28;92569;-85
2022/02/16 09:52:22;;;;;;;12.02;3.85;;;21.10;54.80;;;;;;4954854;28;92253;-87
2022/02/16 09:54:48;;;;;;;9.48;3.85;;;21.10;54.60;;;;;;4952737;28;92717;-86
2022/02/16 09:57:14;;;;;;;9.27;3.40;;;21.10;54.80;;;;;;4953994;28;92983;-87
2022/02/16 09:59:41;;;;;;;10.35;3.30;;;21.10;54.60;;;;;;4952003;28;93243;-85
2022/02/16 10:02:12;;;;;;;18.50;3.90;;;21.10;54.60;;;;;;4945559;28;93326;-86
2022/02/16 10:04:40;;;;;;;8.52;2.88;;;21.20;54.40;;;;;;4946582;28;93119;-86
2022/02/16 10:07:30;;;;;;;13.63;3.28;;;21.20;54.50;;;;;;4952511;28;93379;-87
2022/02/16 10:10:10;;;;;;;9.93;3.28;;;21.20;54.90;;;;;;4953333;28;93150;-85
2022/02/16 10:12:36;;;;;;;12.35;3.40;;;21.10;55.20;;;;;;4960883;28;92909;-87
2022/02/16 10:15:02;;;;;;;10.52;3.45;;;21.20;55.20;;;;;;4894888;28;93609;-85
2022/02/16 10:17:29;;;;;;;13.90;3.17;;;21.20;55.30;;;;;;4957336;28;92668;-85
2022/02/16 10:19:56;;;;;;;15.00;3.25;;;21.20;55.50;;;;;;4961322;28;92460;-86
2022/02/16 10:22:30;;;;;;;14.80;3.50;;;21.20;55.60;;;;;;4954727;28;92820;-86
2022/02/16 10:25:12;;;;;;;10.10;3.15;;;21.20;55.40;;;;;;4952942;28;96711;-88
2022/02/16 10:28:07;;;;;;;11.95;2.80;;;21.10;55.70;;;;;;4967190;28;96527;-85
2022/02/16 10:30:34;;;;;;;16.13;3.08;;;21.20;55.70;;;;;;4952373;28;93169;-86
2022/02/16 10:33:19;;;;;;;15.10;3.60;;;21.20;55.90;;;;;;4953518;28;93333;-86
2022/02/16 10:35:50;;;;;;;11.85;3.33;;;21.20;56.00;;;;;;4952050;28;93198;-87
2022/02/16 10:38:16;;;;;;;12.20;3.58;;;21.10;56.10;;;;;;4959532;28;92732;-86
2022/02/16 10:41:00;;;;;;;9.60;3.20;;;21.20;56.10;;;;;;4958381;28;92471;-86
2022/02/16 10:43:35;;;;;;;8.10;3.38;;;21.20;56.00;;;;;;4949156;28;91603;-87
2022/02/16 10:46:00;;;;;;;8.40;3.22;;;21.20;55.90;;;;;;4951135;28;94936;-86
2022/02/16 10:48:26;;;;;;;12.40;3.30;;;21.20;55.80;;;;;;4958411;28;93581;-86
2022/02/16 10:50:52;;;;;;;20.52;3.65;;;21.30;55.80;;;;;;4959131;28;93188;-88
2022/02/16 10:53:29;;;;;;;13.45;3.97;;;21.20;55.80;;;;;;4958218;28;93070;-88
2022/02/16 10:55:55;;;;;;;12.40;3.40;;;21.20;56.00;;;;;;4958077;28;93820;-88
2022/02/16 10:58:25;;;;;;;12.70;3.70;;;21.30;56.10;;;;;;4954985;28;93741;-88
2022/02/16 11:00:59;;;;;;;14.15;3.10;;;21.20;56.00;;;;;;4957276;28;92494;-87
2022/02/16 11:03:33;;;;;;;14.98;3.65;;;21.20;56.10;;;;;;4956409;28;92745;-87
2022/02/16 11:06:05;;;;;;;11.10;2.92;;;21.20;56.10;;;;;;4956590;28;92686;-87
2022/02/16 11:08:32;;;;;;;14.93;3.63;;;21.30;56.00;;;;;;4957882;28;92383;-86
2022/02/16 11:11:03;;;;;;;12.38;3.30;;;21.20;56.10;;;;;;4961475;28;93059;-87
2022/02/16 11:13:33;;;;;;;14.40;3.10;;;21.30;56.20;;;;;;4959007;28;92790;-87
2022/02/16 11:16:00;;;;;;;16.00;3.85;;;21.20;56.10;;;;;;4954143;28;95904;-88
2022/02/16 11:18:30;;;;;;;12.15;2.65;;;21.20;56.30;;;;;;4958197;28;94535;-87
2022/02/16 11:21:09;;;;;;;;;;;21.30;56.20;;;;;;4956847;28;92787;-87
2022/02/16 11:23:49;;;;;;;11.95;3.83;;;21.30;56.30;;;;;;4965843;28;93277;-86
2022/02/16 11:26:35;;;;;;;13.50;3.22;;;21.30;56.10;;;;;;4956176;28;92677;-85
2022/02/16 11:29:27;;;;;;;12.60;3.50;;;21.30;56.10;;;;;;4958920;28;92150;-87
2022/02/16 11:32:11;;;;;;;11.40;3.00;;;21.30;56.50;;;;;;4965369;28;93170;-85
2022/02/16 11:34:37;;;;;;;14.43;3.10;;;21.30;56.80;;;;;;4958925;28;92563;-87
2022/02/16 11:37:05;;;;;;;12.20;3.40;;;21.20;56.50;;;;;;4949887;28;94681;-85
2022/02/16 11:39:49;;;;;;;11.98;3.33;;;21.30;56.50;;;;;;4956823;28;92811;-84
2022/02/16 11:42:30;;;;;;;13.05;3.38;;;21.30;56.80;;;;;;4958254;28;94057;-83
2022/02/16 11:44:56;;;;;;;12.13;3.22;;;21.30;57.00;;;;;;4956129;28;92288;-84
2022/02/16 11:47:34;;;;;;;12.63;3.15;;;21.30;57.10;;;;;;4958630;28;93124;-83
2022/02/16 11:50:25;;;;;;;15.20;3.00;;;21.40;57.70;;;;;;4956157;28;94234;-84
2022/02/16 11:52:55;;;;;;;18.20;3.50;;;21.40;57.20;;;;;;4946291;28;92708;-84
2022/02/16 11:55:40;;;;;;;15.32;3.65;;;21.50;57.30;;;;;;4957573;28;92898;-83
2022/02/16 11:58:13;;;;;;;18.13;4.32;;;21.40;57.30;;;;;;4976002;28;95732;-84
2022/02/16 12:00:46;;;;;;;15.60;3.75;;;21.40;57.40;;;;;;4966756;28;92289;-86
2022/02/16 12:03:15;;;;;;;9.88;3.20;;;21.40;57.60;;;;;;4962457;28;92311;-87
2022/02/16 12:05:55;;;;;;;20.10;3.65;;;21.40;57.50;;;;;;4963394;28;92943;-84
2022/02/16 12:08:27;;;;;;;16.38;2.85;;;21.50;57.80;;;;;;4962080;28;93623;-82
2022/02/16 12:11:05;;;;;;;20.25;3.33;;;21.50;58.00;;;;;;4966646;28;92531;-84
2022/02/16 12:13:37;;;;;;;13.85;3.05;;;21.50;58.10;;;;;;4961957;28;92598;-83
2022/02/16 12:16:04;;;;;;;17.15;3.78;;;21.50;58.10;;;;;;4964478;28;92399;-83
2022/02/16 12:18:31;;;;;;;23.15;5.32;;;21.50;58.10;;;;;;4962797;28;96627;-84
2022/02/16 12:20:57;;;;;;;53.90;12.38;;;21.50;58.10;;;;;;4961207;28;95398;-83
2022/02/16 12:23:26;;;;;;;34.13;8.88;;;21.40;58.30;;;;;;4963316;28;92575;-84
2022/02/16 12:26:13;;;;;;;35.75;9.05;;;21.50;58.30;;;;;;4959560;28;91825;-83
2022/02/16 12:28:47;;;;;;;33.88;10.88;;;21.40;58.30;;;;;;4955401;28;94330;-85
2022/02/16 12:31:14;;;;;;;52.42;12.23;;;21.50;58.20;;;;;;4960608;28;95278;-83
2022/02/16 12:33:40;;;;;;;46.95;12.20;;;21.50;58.40;;;;;;4958096;28;93807;-84
2022/02/16 12:36:07;;;;;;;43.58;11.15;;;21.50;58.40;;;;;;4955841;28;92778;-84
2022/02/16 12:38:34;;;;;;;37.75;10.98;;;21.50;58.40;;;;;;4958165;28;93026;-84
2022/02/16 12:41:01;;;;;;;45.45;11.25;;;21.50;58.50;;;;;;4958498;28;92522;-85
2022/02/16 12:43:27;;;;;;;38.92;10.18;;;21.50;58.70;;;;;;4962856;28;92982;-83
2022/02/16 12:45:53;;;;;;;38.80;11.68;;;21.50;58.80;;;;;;4956023;28;92828;-82